Station: PT LINCOLN AWS

  Atmospheric Gas Attenuation - ITU Rec 676-11   --------------- db/100km ---------------
Date Time Temp RH % AH g/m3 Dew Point Wind Direction Speed kph Gust kph Barometer mB Rainfall Since 9am 24GHz 47GHz 76GHz 122GHz 134GHz 241GHz
21 19:30 10.8 87 8.6 8.7 30 46 1007.4 1.8 19.7 26.6 41.1 107.9 101.8 350.1
21 19:20 11.2 87 8.82 9.1 30 35 1007.3 1.8 20.2 26.8 41.8 109.8 104.3 358.8
21 19:10 12.9 78 8.79 9.2 28 32 1007 1.4 20.0 26.2 40.7 107.0 101.6 349.5
21 19:00 12.6 78 8.63 8.9 28 35 1006.6 1.2 19.7 26.0 40.2 105.7 99.8 343.3
21 18:50 12.6 78 8.63 8.9 32 37 1006.4 1.2 19.7 26.0 40.2 105.7 99.8 343.2
21 18:40 12.5 78 8.58 8.8 26 32 1006.4 1.2 19.6 26.0 40.1 105.2 99.2 341.3
21 18:30 13 75 8.51 8.7 39 56 1006.3 1.2 19.4 25.7 39.5 103.8 97.7 335.9
21 18:20 13.4 73 8.49 8.7 33 41 1006.1 1.2 19.4 25.6 39.2 103.1 96.9 333.2
21 18:10 13.6 70 8.24 8.2 37 44 1005.9 1.2 18.8 25.1 38.1 100.1 93.3 320.8
21 18:00 13.6 71 8.36 8.4 37 57 1005.8 1.2 19.1 25.3 38.6 101.4 94.9 326.3
21 17:50 13.9 68 8.15 8.1 39 44 1005.7 1.2 18.6 24.9 37.6 98.8 91.8 315.5
21 17:40 14.7 67 8.44 8.6 35 44 1005.7 1.2 19.2 25.1 38.4 100.8 94.6 325.3
21 17:30 14.5 66 8.21 8.2 35 52 1005.4 1.2 18.7 24.8 37.6 98.6 91.8 315.7
21 17:20 14.6 68 8.51 8.8 43 50 1005.2 1.2 19.4 25.2 38.7 101.6 95.6 328.8
21 17:10 14.8 66 8.36 8.5 39 50 1005.1 1.2 19.0 24.9 38.0 99.8 93.4 321.2
21 17:00 15.1 66 8.51 8.8 37 54 1005.1 1.2 19.3 25.1 38.4 101.0 95.0 326.7
21 16:50 15 68 8.72 9.1 33 41 1005 1.2 19.8 25.4 39.3 103.3 97.8 336.6
21 16:40 15.3 65 8.49 8.8 43 52 1004.9 1.2 19.3 25.0 38.3 100.5 94.4 324.9
21 16:30 15.4 64 8.41 8.6 37 54 1004.9 1.2 19.1 24.8 37.9 99.5 93.3 320.9
21 16:20 15.8 63 8.48 8.8 41 50 1004.9 1.2 19.2 24.8 38.0 99.7 93.7 322.4
21 16:10 15.8 64 8.61 9 44 54 1004.8 1.2 19.5 25.0 38.5 101.1 95.4 328.2
21 16:00 15.6 66 8.78 9.3 35 54 1004.8 1.2 19.9 25.4 39.2 103.1 97.8 336.7
21 15:50 15.9 64 8.67 9.1 39 46 1004.6 1.2 19.6 25.1 38.7 101.5 96.0 330.4
21 15:40 16 64 8.72 9.2 44 54 1004.5 1.2 19.8 25.1 38.8 101.9 96.5 332.2
21 15:30 16.3 67 9.29 10.2 39 54 1004.5 1.2 21.0 25.9 40.9 107.5 103.5 356.6
21 15:20 16.4 68 9.49 10.5 32 39 1004.5 1.2 21.4 26.2 41.6 109.5 105.9 365.3
21 15:10 15.7 65 8.7 9.1 41 50 1004.3 1.2 19.7 25.2 38.9 102.1 96.6 332.5
21 15:00 15.3 68 8.88 9.4 43 59 1004.2 1.2 20.1 25.6 39.8 104.5 99.4 342.3
21 14:50 15.2 72 9.35 10.2 41 50 1004.2 1.2 21.1 26.4 41.7 109.6 105.7 364.3
21 14:40 14.5 74 9.2 9.9 37 50 1004.2 1.2 20.9 26.3 41.4 109.0 104.7 360.6
21 14:30 13.5 80 9.36 10.1 48 69 1004.2 1.2 21.2 26.9 42.6 112.1 108.2 372.8
21 14:20 14.3 81 9.95 11.1 43 52 1004.3 1.2 22.5 27.6 44.6 117.5 115.1 397.0
21 14:10 14 88 10.61 12 44 57 1004.1 1.2 23.9 28.8 47.6 125.4 124.7 430.5
21 14:00 13 82 9.3 10 54 78 1004 1 21.1 26.9 42.6 112.2 108.1 372.3
21 13:50 16.8 61 8.72 9.2 54 63 1003.6 0.4 19.7 24.9 38.4 100.8 95.4 328.6
21 13:40 16.5 67 9.41 10.4 59 70 1003.5 0.4 21.2 26.0 41.2 108.4 104.7 360.9
21 13:30 17.4 62 9.19 10.1 50 70 1003.4 0.4 20.7 25.4 39.9 104.9 100.6 346.9
21 13:20 17.7 62 9.35 10.3 48 57 1003.4 0.4 21.0 25.6 40.4 106.1 102.3 352.7
21 13:10 17.3 60 8.84 9.5 43 52 1003.5 0.4 19.9 24.9 38.6 101.4 96.3 331.8
21 13:00 18 55 8.45 8.8 56 76 1003.5 0.4 19.1 24.1 36.8 96.6 90.6 312.0
21 12:50 18.4 54 8.49 8.9 50 59 1003.6 0.4 19.1 24.1 36.8 96.5 90.7 312.1
21 12:40 17.5 54 8.05 8.1 54 67 1003.5 0.4 18.3 23.7 35.5 93.2 86.3 296.7
21 12:30 18.1 55 8.5 8.9 46 63 1003.7 0.4 19.2 24.2 36.9 97.0 91.2 313.8
21 12:20 17.3 52 7.66 7.4 43 54 1003.6 0.4 17.4 23.1 34.2 89.6 81.8 280.8
21 12:10 17.4 49 7.26 6.6 48 57 1003.6 0.4 16.6 22.5 32.7 85.6 76.9 263.7
21 12:00 17.1 52 7.57 7.2 54 72 1003.6 0.4 17.3 23.1 33.9 88.9 80.9 277.7
21 11:50 17.1 51 7.42 6.9 56 67 1003.6 0.4 16.9 22.8 33.4 87.5 79.1 271.4
21 11:40 16.9 50 7.19 6.4 54 67 1003.6 0.4 16.5 22.5 32.6 85.5 76.5 262.4
21 11:30 17.1 48 6.99 6 48 70 1003.6 0.4 16.0 22.2 31.8 83.3 74.0 253.4
21 11:20 17 59 8.54 8.9 50 63 1003.7 0.4 19.3 24.5 37.6 98.7 92.9 319.9
21 11:10 16.8 58 8.29 8.5 48 52 1003.7 0.4 18.8 24.2 36.7 96.4 90.0 309.7
21 11:00 16.7 57 8.1 8.1 48 65 1003.7 0.4 18.4 24.0 36.1 94.7 87.8 301.9
21 10:50 16.1 59 8.09 8.1 57 67 1003.5 0.4 18.4 24.1 36.3 95.2 88.3 303.7
21 10:40 16.3 62 8.6 9 50 59 1003.6 0.4 19.5 24.8 38.2 100.2 94.5 325.4
21 10:30 15.6 64 8.51 8.8 43 61 1003.5 0.4 19.3 24.9 38.1 100.2 94.2 324.2
21 10:20 15.9 66 8.94 9.6 46 50 1003.5 0.4 20.2 25.5 39.7 104.3 99.4 342.2
21 10:10 15.9 69 9.34 10.2 46 57 1003.5 0.4 21.1 26.1 41.2 108.5 104.6 360.4
21 10:00 15.4 74 9.72 10.8 48 69 1003.3 0.4 21.9 26.9 43.0 113.2 110.3 380.3
21 09:50 14.9 77 9.81 10.9 48 57 1003.1 0.4 22.1 27.2 43.7 114.9 112.2 387.0
21 09:40 14 83 10.01 11.2 46 57 1003.1 0.4 22.6 27.8 45.0 118.5 116.2 401.0
21 09:30 13.4 86 10 11.1 44 63 1003.1 0.4 22.6 27.9 45.3 119.3 117.0 403.7
21 09:20 13 80 9.07 9.6 50 61 1003 0.2 20.7 26.5 41.7 109.5 104.9 361.1
21 09:10 15.2 73 9.48 10.4 30 39 1002.6 0 21.4 26.5 42.1 110.8 107.3 369.9
21 09:00 14 77 9.29 10 33 46 1002.7 0 21.1 26.6 42.0 110.5 106.4 366.7
21 08:50 12.7 78 8.68 9 30 37 1002.8 1.4 19.8 26.0 40.2 105.7 100.0 344.1
21 08:40 11.4 78 8.01 7.7 35 41 1002.8 1.4 18.4 25.2 38.1 100.2 92.7 318.4
21 08:30 11.6 76 7.9 7.5 37 54 1002.9 1.2 18.2 25.0 37.6 98.7 91.0 312.5
21 08:20 12.2 70 7.55 6.9 37 46 1002.1 0.2 17.4 24.3 35.9 94.2 85.7 294.0
21 08:10 12.5 67 7.37 6.5 37 46 1002 0 17.0 23.9 35.1 92.0 83.1 284.8
21 08:00 12.1 68 7.29 6.4 35 52 1001.9 0 16.9 23.9 34.9 91.6 82.5 282.7
21 07:50 11.7 69 7.22 6.2 33 41 1002.1 0 16.7 23.9 34.8 91.4 82.0 281.0
21 07:40 11.1 69 6.95 5.6 37 46 1002.6 0 16.2 23.6 34.1 89.3 79.2 271.1
21 07:30 11 67 6.71 5.1 35 52 1002.8 0 15.7 23.3 33.2 87.0 76.3 260.8
21 07:20 11.4 64 6.57 4.8 30 39 1002.9 0 15.4 23.0 32.5 85.1 74.1 253.3
21 07:10 11.9 60 6.36 4.4 30 41 1002.6 0 14.9 22.5 31.5 82.4 71.1 242.6
21 07:00 12 60 6.4 4.5 37 54 1002.1 0 15.0 22.5 31.6 82.7 71.4 243.9
21 06:50 11.8 60 6.32 4.3 33 43 1002.1 0 14.8 22.5 31.4 82.1 70.6 241.0
21 06:40 11.5 61 6.3 4.3 33 41 1002.1 0 14.8 22.5 31.4 82.2 70.6 241.1
21 06:30 11.2 64 6.49 4.7 30 48 1002.1 0 15.2 22.9 32.3 84.4 73.3 250.3
21 06:20 10.8 66 6.52 4.7 28 33 1002.1 0 15.3 23.0 32.5 85.2 74.0 252.9
21 06:10 10.8 67 6.62 4.9 30 37 1002.2 0 15.5 23.2 32.9 86.2 75.3 257.3
21 06:00 10.7 68 6.68 5 28 35 1002.1 0 15.6 23.3 33.2 86.9 76.2 260.3
21 05:50 10.8 68 6.72 5.1 30 39 1002 0 15.7 23.3 33.3 87.2 76.6 261.7
21 05:40 10.8 69 6.82 5.3 28 35 1002.1 0 15.9 23.5 33.7 88.2 77.8 266.2
21 05:30 10.5 70 6.79 5.3 26 35 1002.2 0 15.9 23.5 33.7 88.3 77.8 265.9
21 05:20 10.5 70 6.79 5.3 26 32 1002.4 0 15.9 23.5 33.7 88.3 77.8 265.9
21 05:10 10.4 71 6.84 5.4 24 33 1002.4 0 16.0 23.6 33.9 88.9 78.5 268.5
21 04:50 10.3 74 7.09 5.9 24 30 1002.5 0 16.5 24.1 35.0 91.7 81.9 280.2
21 04:40 10.2 74 7.04 5.8 30 33 1002.5 0 16.4 24.0 34.8 91.3 81.3 278.3
21 04:30 9.8 75 6.96 5.6 26 35 1002.5 0 16.3 24.0 34.7 90.9 80.7 276.1
21 04:20 9.9 74 6.91 5.5 26 32 1002.5 0 16.1 23.9 34.4 90.2 79.9 273.4
21 04:10 10.2 74 7.04 5.8 24 28 1002.5 0 16.4 24.0 34.8 91.3 81.3 278.3
21 04:00 10.6 73 7.13 6 28 37 1002.5 0 16.6 24.0 35.0 91.7 82.1 281.0
21 03:50 10.5 73 7.08 5.9 26 30 1002.5 0 16.5 24.0 34.8 91.3 81.5 279.0
21 03:40 10.5 74 7.18 6.1 28 32 1002.6 0 16.7 24.1 35.2 92.4 82.8 283.6
21 03:30 11 71 7.11 6 30 43 1002.6 0 16.5 23.9 34.7 91.1 81.4 278.7
21 03:20 11.3 70 7.14 6 26 30 1002.6 0 16.6 23.9 34.7 91.0 81.5 279.0
21 03:10 11.9 67 7.1 6 32 37 1002.6 0 16.5 23.6 34.3 89.9 80.3 275.1
21 03:00 11.9 66 6.99 5.8 33 41 1002.8 0 16.2 23.5 33.9 88.8 78.9 270.2
21 02:50 11.9 66 6.99 5.8 32 37 1002.9 0 16.2 23.5 33.9 88.8 78.9 270.2

Last Refresh: 21-Sep-2020 19:41:13

Most of the information presented on this site is sourced from the Bureau of Meteorology.  Copyright in all material sourced from the Bureau of Meteorology resides with the Commonwealth of Australia.